Time;durP1;ratioP1;P1;durP2;ratioP2;P2;SDS_P1;SDS_P2;PMS_P1;PMS_P2;Temp;Humidity;BMP_temperature;BMP_pressure;BME280_temperature;BME280_humidity;BME280_pressure;Samples;Min_cycle;Max_cycle;Signal;HPM_P1;HPM_P2
2022/09/07 00:01:45;;;;;;;17.23;9.93;;;;;;;20.77;70.89;101237.63;4981481;28;20045;-64
2022/09/07 00:04:10;;;;;;;13.00;8.75;;;;;;;20.70;70.50;101228.00;4970186;28;20172;-64
2022/09/07 00:06:35;;;;;;;13.80;9.18;;;;;;;20.64;70.73;101239.53;4975717;28;20034;-64
2022/09/07 00:09:02;;;;;;;12.65;8.55;;;;;;;20.61;70.21;101243.09;4966243;28;20026;-64
2022/09/07 00:11:28;;;;;;;16.52;8.43;;;;;;;20.56;70.87;101226.38;4980720;28;20011;-65
2022/09/07 00:13:54;;;;;;;10.93;7.65;;;;;;;20.54;71.10;101207.00;4978787;28;20413;-65
2022/09/07 00:16:23;;;;;;;13.73;8.00;;;;;;;20.53;69.92;101210.53;4966364;28;20046;-62
2022/09/07 00:18:51;;;;;;;12.60;8.18;;;;;;;20.43;70.51;101209.75;4971273;28;20042;-61
2022/09/07 00:21:17;;;;;;;13.88;7.65;;;;;;;20.45;70.27;101192.09;4981098;28;20037;-62
2022/09/07 00:23:43;;;;;;;12.43;7.50;;;;;;;20.39;70.11;101197.47;4974472;28;20310;-61
2022/09/07 00:26:12;;;;;;;12.93;7.57;;;;;;;20.30;70.33;101202.84;4971470;28;20517;-61
2022/09/07 00:28:38;;;;;;;14.07;7.27;;;;;;;20.28;69.92;101204.66;4967941;28;20032;-62
2022/09/07 00:31:07;;;;;;;11.43;7.10;;;;;;;20.23;70.07;101201.16;4970023;28;20034;-61
2022/09/07 00:33:33;;;;;;;10.80;6.60;;;;;;;20.18;70.19;101198.56;4971459;28;20037;-61
2022/09/07 00:35:58;;;;;;;11.70;6.72;;;;;;;20.15;70.01;101198.59;4979011;28;20034;-61
2022/09/07 00:38:23;;;;;;;13.00;6.28;;;;;;;20.08;70.42;101199.56;4977769;28;20018;-61
2022/09/07 00:40:49;;;;;;;12.88;6.15;;;;;;;20.04;70.44;101192.53;4954540;28;20027;-61
2022/09/07 00:43:27;;;;;;;14.98;7.07;;;;;;;19.98;71.02;101202.28;4977910;28;20073;-62
2022/09/07 00:45:52;;;;;;;12.83;7.03;;;;;;;19.93;70.78;101200.59;4968938;28;20033;-61
2022/09/07 00:48:19;;;;;;;11.80;6.68;;;;;;;19.90;70.94;101192.66;4967434;28;20377;-64
2022/09/07 00:50:55;;;;;;;13.35;6.88;;;;;;;19.86;71.22;101180.41;4963060;28;20121;-64
2022/09/07 00:53:26;;;;;;;13.35;7.25;;;;;;;19.82;71.91;101170.72;4963735;28;20039;-64
2022/09/07 00:55:53;;;;;;;13.40;6.75;;;;;;;19.86;71.43;101165.38;4952445;28;20031;-65
2022/09/07 00:58:21;;;;;;;11.35;6.68;;;;;;;19.82;71.51;101145.16;4966638;28;20023;-65
2022/09/07 01:00:48;;;;;;;11.70;7.10;;;;;;;19.79;71.07;101153.13;4967412;28;20041;-65
2022/09/07 01:03:23;;;;;;;12.73;7.50;;;;;;;19.70;71.65;101143.47;4973603;28;20086;-65
2022/09/07 01:05:56;;;;;;;13.30;7.20;;;;;;;19.64;71.72;101149.69;4970133;28;20023;-65
2022/09/07 01:08:23;;;;;;;11.90;6.72;;;;;;;19.63;71.98;101153.22;4968737;28;20433;-65
2022/09/07 01:10:49;;;;;;;11.40;6.80;;;;;;;19.62;71.52;101166.44;4967150;28;20038;-65
2022/09/07 01:13:14;;;;;;;11.57;6.38;;;;;;;19.61;71.68;101164.69;4969080;28;20125;-65
2022/09/07 01:15:47;;;;;;;11.45;7.07;;;;;;;19.58;71.84;101160.34;4971032;28;20062;-65
2022/09/07 01:18:44;;;;;;;13.57;6.80;;;;;;;19.61;71.20;101149.72;4983831;28;20042;-62
2022/09/07 01:21:23;;;;;;;10.45;6.90;;;;;;;19.61;70.77;101155.00;4974663;28;20026;-62
2022/09/07 01:23:56;;;;;;;;;;;;;;;19.67;69.33;101154.09;4969774;28;20041;-62
2022/09/07 01:26:39;;;;;;;10.85;6.65;;;;;;;19.59;70.60;101159.41;4972080;28;19914;-62
2022/09/07 01:29:13;;;;;;;11.55;7.05;;;;;;;19.58;71.27;101170.00;4963679;28;20039;-62
2022/09/07 01:31:42;;;;;;;13.07;7.38;;;;;;;19.56;71.79;101179.72;4984481;28;20030;-62
2022/09/07 01:34:27;;;;;;;9.60;6.45;;;;;;;19.52;70.96;101175.34;4970585;28;20092;-62
2022/09/07 01:37:21;;;;;;;11.35;6.63;;;;;;;19.46;71.74;101181.56;4975391;28;20027;-62
2022/09/07 01:40:01;;;;;;;12.13;6.65;;;;;;;19.47;71.61;101164.81;4969850;28;20190;-62
2022/09/07 01:42:40;;;;;;;12.20;6.47;;;;;;;19.42;71.79;101150.75;4955239;28;20116;-62
2022/09/07 01:45:11;;;;;;;20.70;6.83;;;;;;;19.39;72.49;101166.66;4964606;28;20071;-62
2022/09/07 01:47:42;;;;;;;13.05;6.68;;;;;;;19.38;71.94;101159.59;4974611;28;20097;-64
2022/09/07 01:50:30;;;;;;;10.43;7.10;;;;;;;19.37;71.33;101156.09;4984399;28;20730;-65
2022/09/07 01:53:09;;;;;;;13.68;7.18;;;;;;;19.37;72.01;101160.50;4970038;28;20117;-65
2022/09/07 01:55:53;;;;;;;;;;;;;;;19.44;70.38;101156.94;4970553;28;20023;-65
2022/09/07 01:58:22;;;;;;;11.10;6.78;;;;;;;19.34;72.13;101161.41;4967097;28;20025;-65
2022/09/07 02:00:56;;;;;;;13.57;7.45;;;;;;;19.34;71.84;101173.75;4962898;28;20506;-65
2022/09/07 02:03:39;;;;;;;14.73;8.15;;;;;;;19.32;71.23;101170.22;4963021;28;20030;-65
2022/09/07 02:06:14;;;;;;;12.80;6.75;;;;;;;19.30;72.39;101167.59;4970169;28;20074;-65
2022/09/07 02:08:54;;;;;;;13.27;7.20;;;;;;;19.27;72.27;101170.25;4966729;28;20045;-64
2022/09/07 02:11:28;;;;;;;13.05;7.18;;;;;;;19.25;71.96;101170.28;4969934;28;20497;-64
2022/09/07 02:13:59;;;;;;;12.38;7.35;;;;;;;19.26;72.26;101171.13;4960334;28;20026;-64
2022/09/07 02:16:29;;;;;;;13.65;7.28;;;;;;;19.23;71.74;101173.81;4976294;28;20379;-64
2022/09/07 02:19:00;;;;;;;12.38;7.30;;;;;;;19.20;72.00;101164.13;4967865;28;20379;-64
2022/09/07 02:21:32;;;;;;;14.88;7.60;;;;;;;19.17;71.63;101164.16;4974230;28;20066;-64
2022/09/07 02:24:08;;;;;;;12.18;7.20;;;;;;;19.14;71.67;101153.63;4972785;28;20169;-65
2022/09/07 02:26:36;;;;;;;12.60;7.07;;;;;;;19.07;72.52;101151.91;4973529;28;20561;-62
2022/09/07 02:29:02;;;;;;;11.87;7.47;;;;;;;19.07;72.43;101163.38;4964450;28;20659;-62
2022/09/07 02:31:27;;;;;;;13.35;8.38;;;;;;;19.06;72.22;101156.31;4972500;28;20856;-61
2022/09/07 02:33:52;;;;;;;13.82;7.88;;;;;;;19.03;72.38;101158.97;4971931;28;20022;-62
2022/09/07 02:36:23;;;;;;;14.02;7.93;;;;;;;18.98;72.17;101162.53;4973279;28;20038;-61
2022/09/07 02:38:48;;;;;;;17.42;7.85;;;;;;;18.96;72.12;101166.94;4969990;28;20023;-62
2022/09/07 02:41:49;;;;;;;15.63;8.20;;;;;;;19.00;70.88;101166.94;4977957;28;20033;-61
2022/09/07 02:44:18;;;;;;;14.25;8.27;;;;;;;18.94;71.88;101165.19;4911662;29;20027;-61
2022/09/07 02:47:02;;;;;;;14.60;9.00;;;;;;;18.93;71.67;101162.56;4954902;28;20039;-61
2022/09/07 02:49:36;;;;;;;14.50;8.90;;;;;;;18.89;71.72;101158.19;4950418;28;20047;-61
2022/09/07 02:52:11;;;;;;;16.92;8.73;;;;;;;18.89;71.66;101164.34;4969327;28;20053;-61
2022/09/07 02:54:50;;;;;;;15.48;8.90;;;;;;;18.88;71.51;101162.56;4973405;28;20026;-62
2022/09/07 02:57:18;;;;;;;;;;;;;;;18.97;69.85;101158.13;4976124;28;20026;-61
2022/09/07 03:00:05;;;;;;;17.73;8.88;;;;;;;18.85;70.95;101159.91;4984282;28;19913;-61
2022/09/07 03:03:01;;;;;;;17.73;8.88;;;;;;;18.84;70.94;101166.13;4969018;28;20037;-61
2022/09/07 03:05:38;;;;;;;16.55;9.00;;;;;;;18.78;70.96;101168.75;4976053;28;20030;-61
2022/09/07 03:08:19;;;;;;;18.35;9.60;;;;;;;18.73;71.05;101167.94;4970819;28;20037;-61
2022/09/07 03:10:45;;;;;;;17.23;8.40;;;;;;;18.68;71.49;101167.91;4965694;28;20089;-61
2022/09/07 03:13:22;;;;;;;15.18;8.88;;;;;;;18.66;71.39;101160.91;4972102;28;20034;-61
2022/09/07 03:15:48;;;;;;;15.98;8.65;;;;;;;18.63;72.19;101161.81;4974513;28;20123;-62
2022/09/07 03:18:13;;;;;;;15.45;8.93;;;;;;;18.59;73.19;101158.28;4979720;28;20076;-61
2022/09/07 03:20:38;;;;;;;16.42;8.93;;;;;;;18.57;73.51;101152.16;4975083;28;20109;-61
2022/09/07 03:23:04;;;;;;;18.58;9.20;;;;;;;18.56;73.20;101155.66;4971495;28;20656;-61
2022/09/07 03:25:29;;;;;;;14.27;9.02;;;;;;;18.55;73.32;101139.84;4971778;28;20082;-61
2022/09/07 03:27:55;;;;;;;17.88;9.48;;;;;;;18.52;74.39;101140.72;4970093;28;20030;-61
2022/09/07 03:30:20;;;;;;;16.95;8.63;;;;;;;18.50;74.05;101150.41;4971298;28;20039;-62
2022/09/07 03:32:46;;;;;;;17.52;9.27;;;;;;;18.47;74.08;101157.50;4971537;28;20035;-62
2022/09/07 03:35:11;;;;;;;16.38;9.32;;;;;;;18.44;74.50;101163.66;4977064;28;20034;-62
2022/09/07 03:37:37;;;;;;;18.05;9.52;;;;;;;18.44;74.23;101150.47;4981770;28;20101;-62
2022/09/07 03:40:05;;;;;;;17.13;10.50;;;;;;;18.45;74.51;101146.94;4973542;28;20082;-62
2022/09/07 03:42:30;;;;;;;23.23;10.98;;;;;;;18.45;74.94;101141.66;4974461;28;20483;-62
2022/09/07 03:44:56;;;;;;;18.85;10.48;;;;;;;18.45;75.00;101146.94;4979898;28;20081;-61
2022/09/07 03:47:21;;;;;;;19.35;11.30;;;;;;;18.45;75.27;101159.25;4987988;28;20551;-62
2022/09/07 03:49:47;;;;;;;21.20;11.20;;;;;;;18.45;74.81;101168.06;4984368;28;20046;-61
2022/09/07 03:52:13;;;;;;;17.95;10.52;;;;;;;18.46;75.24;101163.63;4975162;28;20062;-61
2022/09/07 03:54:38;;;;;;;17.70;10.75;;;;;;;18.46;75.08;101148.69;4982383;28;20538;-61
2022/09/07 03:57:04;;;;;;;19.00;10.60;;;;;;;18.44;75.42;101150.47;4974856;28;20034;-64
2022/09/07 03:59:29;;;;;;;19.15;10.98;;;;;;;18.44;75.27;101150.47;4973942;28;20126;-64
2022/09/07 04:01:54;;;;;;;20.05;11.73;;;;;;;18.39;76.09;101129.38;4977883;28;20027;-64
2022/09/07 04:04:20;;;;;;;18.85;11.15;;;;;;;18.41;76.09;101130.22;4971317;28;20031;-64
2022/09/07 04:06:45;;;;;;;19.45;11.55;;;;;;;18.41;75.92;101132.00;4977060;28;20031;-64
2022/09/07 04:09:12;;;;;;;17.67;11.30;;;;;;;18.37;76.00;101125.84;4962901;28;20033;-65
2022/09/07 04:11:39;;;;;;;19.55;11.10;;;;;;;18.37;76.53;101124.97;4966517;28;20095;-64
2022/09/07 04:14:04;;;;;;;20.00;11.50;;;;;;;18.35;76.54;101118.81;4966958;28;20093;-65
2022/09/07 04:16:30;;;;;;;18.70;11.65;;;;;;;18.33;76.13;101110.91;4968688;28;20031;-64
2022/09/07 04:18:56;;;;;;;20.83;11.50;;;;;;;18.34;76.14;101106.53;4973625;28;20792;-64
2022/09/07 04:21:22;;;;;;;18.33;10.80;;;;;;;18.33;76.23;101104.75;4972568;28;20149;-64
2022/09/07 04:23:48;;;;;;;18.05;11.07;;;;;;;18.31;75.61;101102.13;4969439;28;20109;-65
2022/09/07 04:26:22;;;;;;;23.27;11.68;;;;;;;18.30;75.99;101110.06;4979257;28;20037;-61
2022/09/07 04:28:48;;;;;;;21.35;11.73;;;;;;;18.27;75.54;101116.22;4970410;28;20081;-61
2022/09/07 04:31:15;;;;;;;18.50;11.43;;;;;;;18.24;76.09;101125.00;4975437;28;20077;-61
2022/09/07 04:33:42;;;;;;;21.83;12.00;;;;;;;18.22;75.96;101129.44;4971152;28;20454;-61
2022/09/07 04:36:07;;;;;;;18.85;11.68;;;;;;;18.22;75.59;101125.94;4970938;28;20117;-62
2022/09/07 04:38:33;;;;;;;22.63;12.88;;;;;;;18.23;75.89;101135.56;4972076;28;20098;-62
2022/09/07 04:41:08;;;;;;;24.50;12.60;;;;;;;18.23;76.13;101131.19;4975985;28;20493;-62
2022/09/07 04:43:35;;;;;;;21.27;12.90;;;;;;;18.24;76.08;101130.28;4983922;28;20032;-62
2022/09/07 04:46:02;;;;;;;22.92;13.10;;;;;;;18.24;75.71;101132.94;4967005;28;20035;-62
2022/09/07 04:48:27;;;;;;;21.45;12.88;;;;;;;18.27;75.10;101131.19;4975795;28;20117;-62
2022/09/07 04:50:52;;;;;;;24.42;14.00;;;;;;;18.27;75.50;101125.91;4968059;28;20733;-62
2022/09/07 04:53:18;;;;;;;24.98;12.98;;;;;;;18.25;75.47;101129.41;4976513;28;20037;-62
2022/09/07 04:55:44;;;;;;;26.75;14.00;;;;;;;18.23;75.11;101125.03;4982621;28;20041;-62
2022/09/07 04:58:09;;;;;;;22.55;13.40;;;;;;;18.24;76.05;101117.09;4976936;28;20027;-65
2022/09/07 05:00:36;;;;;;;22.80;13.38;;;;;;;18.22;75.89;101121.50;4965931;28;20043;-65
2022/09/07 05:03:01;;;;;;;26.80;14.05;;;;;;;18.20;76.71;101119.75;4963443;28;20517;-65
2022/09/07 05:05:27;;;;;;;24.05;13.48;;;;;;;18.18;76.63;101121.53;4972047;28;20030;-65
2022/09/07 05:07:52;;;;;;;24.02;13.30;;;;;;;18.18;76.07;101117.13;4980942;28;20066;-65
2022/09/07 05:10:17;;;;;;;26.55;13.43;;;;;;;18.17;76.81;101122.41;4965815;28;20493;-65
2022/09/07 05:12:43;;;;;;;27.38;14.02;;;;;;;18.15;77.29;101114.50;4976408;28;20034;-65
2022/09/07 05:15:08;;;;;;;25.20;14.32;;;;;;;18.11;77.35;101107.50;4982538;28;20038;-65
2022/09/07 05:17:34;;;;;;;22.52;13.15;;;;;;;18.11;76.87;101106.63;4970696;28;20628;-66
2022/09/07 05:19:59;;;;;;;23.85;13.18;;;;;;;18.13;76.92;101110.13;4976056;28;20054;-65
2022/09/07 05:22:24;;;;;;;26.35;13.45;;;;;;;18.14;76.53;101114.50;4984443;28;20113;-65
2022/09/07 05:24:50;;;;;;;23.75;13.52;;;;;;;18.15;77.08;101126.81;4971862;28;20023;-65
2022/09/07 05:27:15;;;;;;;24.23;12.85;;;;;;;18.13;76.85;101121.53;4979199;28;20487;-65
2022/09/07 05:29:41;;;;;;;24.90;13.73;;;;;;;18.10;76.82;101118.03;4970574;28;20632;-65
2022/09/07 05:32:07;;;;;;;29.15;14.93;;;;;;;18.08;76.68;101124.19;4972587;28;20042;-65
2022/09/07 05:34:32;;;;;;;28.15;14.77;;;;;;;18.10;76.94;101125.94;4969979;28;20042;-65
2022/09/07 05:36:58;;;;;;;25.10;14.20;;;;;;;18.11;76.80;101125.06;4973599;28;20022;-65
2022/09/07 05:39:23;;;;;;;26.73;14.98;;;;;;;18.08;77.56;101118.91;4972176;28;20023;-65
2022/09/07 05:41:48;;;;;;;30.30;14.43;;;;;;;18.07;77.57;101118.91;4971083;28;20505;-65
2022/09/07 05:44:14;;;;;;;26.40;15.27;;;;;;;18.07;77.20;101126.84;4969948;28;20326;-65
2022/09/07 05:46:39;;;;;;;27.88;14.77;;;;;;;18.06;77.38;101125.97;4983467;28;20024;-65
2022/09/07 05:49:06;;;;;;;27.00;14.30;;;;;;;18.03;77.56;101125.06;4975596;28;20411;-65
2022/09/07 05:51:32;;;;;;;23.42;13.30;;;;;;;18.02;77.21;101136.53;4977386;28;20038;-65
2022/09/07 05:53:58;;;;;;;28.02;14.90;;;;;;;17.99;78.10;101134.78;4980622;28;20034;-65
2022/09/07 05:56:24;;;;;;;28.65;14.82;;;;;;;17.95;78.31;101134.78;4975243;28;20395;-64
2022/09/07 05:58:49;;;;;;;26.80;15.52;;;;;;;17.97;78.26;101141.78;4972637;28;20302;-65
2022/09/07 06:01:16;;;;;;;32.63;16.10;;;;;;;17.95;78.50;101145.34;4975622;28;20062;-65
2022/09/07 06:03:43;;;;;;;29.20;15.63;;;;;;;17.95;78.64;101153.25;4972684;28;20049;-65
2022/09/07 06:06:11;;;;;;;32.28;15.82;;;;;;;17.94;78.57;101147.06;4969056;28;20166;-65
2022/09/07 06:08:38;;;;;;;27.98;14.80;;;;;;;17.97;78.36;101154.09;4976708;28;20038;-65
2022/09/07 06:11:07;;;;;;;31.98;16.75;;;;;;;17.96;78.12;101153.25;4968051;28;20113;-65
2022/09/07 06:13:33;;;;;;;33.25;16.88;;;;;;;17.97;78.28;101156.75;4970402;28;20105;-65
2022/09/07 06:16:00;;;;;;;37.60;17.33;;;;;;;17.96;79.04;101155.88;4976318;28;20506;-64
2022/09/07 06:18:29;;;;;;;32.85;17.70;;;;;;;17.96;78.21;101152.34;4973697;28;20015;-65
2022/09/07 06:20:54;;;;;;;40.75;19.83;;;;;;;17.96;78.90;101149.69;4962773;28;20034;-65
2022/09/07 06:23:19;;;;;;;40.13;19.30;;;;;;;17.98;78.64;101156.75;4969926;28;20038;-65
2022/09/07 06:25:48;;;;;;;46.53;22.17;;;;;;;17.97;78.54;101149.69;4974373;28;20030;-65
2022/09/07 06:28:13;;;;;;;48.15;22.88;;;;;;;17.98;79.25;101158.50;4965047;28;20038;-65
2022/09/07 06:30:39;;;;;;;46.75;22.73;;;;;;;17.99;78.52;101168.19;4969408;28;20375;-65
2022/09/07 06:33:04;;;;;;;59.10;24.80;;;;;;;17.99;79.76;101163.78;4972911;28;20092;-65
2022/09/07 06:35:29;;;;;;;53.00;25.05;;;;;;;17.99;79.93;101165.53;4971571;28;20069;-65
2022/09/07 06:37:55;;;;;;;54.63;25.63;;;;;;;18.01;79.26;101164.63;4974271;28;20014;-65
2022/09/07 06:40:21;;;;;;;62.90;26.95;;;;;;;18.03;79.62;101173.44;4969112;28;20508;-65
2022/09/07 06:42:46;;;;;;;69.78;29.17;;;;;;;18.00;80.89;101176.09;4976813;28;20504;-65
2022/09/07 06:45:12;;;;;;;74.70;32.03;;;;;;;17.98;81.36;101176.97;4977394;28;20113;-65
2022/09/07 06:47:37;;;;;;;76.57;31.42;;;;;;;18.02;81.15;101178.72;4967771;28;20026;-65
2022/09/07 06:50:03;;;;;;;94.43;36.00;;;;;;;17.98;81.45;101169.91;4974298;28;20074;-65
2022/09/07 06:52:28;;;;;;;95.65;35.47;;;;;;;18.00;81.66;101175.19;4972083;28;20129;-65
2022/09/07 06:54:54;;;;;;;98.68;36.10;;;;;;;18.02;81.43;101178.72;4971736;28;20030;-65
2022/09/07 06:57:19;;;;;;;100.78;37.70;;;;;;;18.03;82.00;101172.53;4973598;28;20034;-65
2022/09/07 06:59:44;;;;;;;122.35;40.78;;;;;;;17.99;82.71;101179.59;4969355;28;20372;-65
2022/09/07 07:02:13;;;;;;;106.25;40.28;;;;;;;18.02;82.12;101181.34;4968873;28;20501;-65
2022/09/07 07:04:38;;;;;;;;;;;;;;;18.08;79.57;101174.28;4970623;28;20033;-65
2022/09/07 07:07:04;;;;;;;120.13;40.23;;;;;;;18.03;82.44;101176.06;4974052;28;19918;-65
2022/09/07 07:09:29;;;;;;;116.90;41.55;;;;;;;18.03;82.46;101181.34;4974218;28;20042;-65
2022/09/07 07:11:54;;;;;;;109.10;41.47;;;;;;;18.01;81.51;101182.22;4967102;28;20023;-65
2022/09/07 07:14:20;;;;;;;116.65;43.17;;;;;;;18.00;83.17;101180.47;4964762;28;20340;-65
2022/09/07 07:16:45;;;;;;;119.40;44.08;;;;;;;18.01;82.87;101179.59;4966884;28;20021;-65
2022/09/07 07:19:10;;;;;;;120.43;42.60;;;;;;;18.05;82.71;101178.72;4969174;28;20022;-65
2022/09/07 07:21:36;;;;;;;122.55;44.90;;;;;;;18.05;84.18;101181.34;4963232;28;20118;-65
2022/09/07 07:24:01;;;;;;;116.50;44.92;;;;;;;18.05;84.34;101181.34;4968286;28;20034;-65
2022/09/07 07:26:27;;;;;;;111.85;44.38;;;;;;;18.10;83.98;101182.19;4972006;28;20023;-66
2022/09/07 07:28:54;;;;;;;108.65;43.45;;;;;;;18.13;83.82;101181.31;4984877;28;20105;-65
2022/09/07 07:31:22;;;;;;;108.70;44.70;;;;;;;18.16;85.04;101187.47;4968339;28;20029;-65
2022/09/07 07:33:48;;;;;;;104.10;42.10;;;;;;;18.22;85.15;101191.88;4983044;28;20035;-65
2022/09/07 07:36:22;;;;;;;99.35;42.05;;;;;;;18.22;84.87;101195.38;4975341;28;20529;-64
2022/09/07 07:38:50;;;;;;;94.65;41.00;;;;;;;18.23;85.00;101191.88;4979360;28;20085;-65
2022/09/07 07:41:18;;;;;;;92.50;41.10;;;;;;;18.26;85.01;101198.88;4967040;28;20524;-65
2022/09/07 07:43:43;;;;;;;88.72;40.50;;;;;;;18.29;85.58;101192.72;4980674;28;20040;-65
2022/09/07 07:46:13;;;;;;;86.57;38.95;;;;;;;18.35;86.30;101198.84;4985195;28;20502;-65
2022/09/07 07:48:39;;;;;;;81.50;39.15;;;;;;;18.40;85.59;101201.47;4971038;28;20125;-65
2022/09/07 07:51:08;;;;;;;69.90;37.30;;;;;;;18.46;84.21;101196.16;4966505;28;20040;-65
2022/09/07 07:53:35;;;;;;;67.45;36.30;;;;;;;18.47;83.60;101205.84;4966408;28;20043;-65
2022/09/07 07:56:05;;;;;;;59.90;35.28;;;;;;;18.46;83.65;101196.16;4963766;28;20049;-65
2022/09/07 07:58:32;;;;;;;62.85;35.03;;;;;;;18.49;83.11;101200.56;4964708;28;20030;-64
2022/09/07 08:01:10;;;;;;;58.22;34.38;;;;;;;18.51;83.35;101215.53;4968449;28;20022;-64
2022/09/07 08:03:37;;;;;;;56.53;33.42;;;;;;;18.52;83.61;101206.69;4964589;28;20454;-65
2022/09/07 08:06:07;;;;;;;51.08;31.23;;;;;;;18.54;82.97;101210.22;4963413;28;20038;-65
2022/09/07 08:08:35;;;;;;;52.95;30.52;;;;;;;18.57;82.87;101215.50;4962083;28;20041;-65
2022/09/07 08:11:03;;;;;;;47.38;29.30;;;;;;;18.61;82.68;101208.47;4964003;28;20026;-65
2022/09/07 08:13:32;;;;;;;44.27;27.97;;;;;;;18.65;82.74;101217.22;4964403;28;20033;-65
2022/09/07 08:15:57;;;;;;;42.23;27.57;;;;;;;18.67;82.42;101210.16;4964543;28;20291;-65
2022/09/07 08:18:23;;;;;;;43.33;28.60;;;;;;;18.69;82.90;101219.84;4965320;28;21650;-65
2022/09/07 08:20:48;;;;;;;40.97;26.65;;;;;;;18.78;84.10;101218.91;4964599;28;20062;-64
2022/09/07 08:23:14;;;;;;;39.15;26.58;;;;;;;18.82;83.22;101218.03;4967613;28;20030;-65
2022/09/07 08:25:51;;;;;;;34.90;24.77;;;;;;;18.89;82.10;101227.72;4970029;28;20046;-64
2022/09/07 08:28:17;;;;;;;37.30;25.17;;;;;;;18.93;82.65;101226.81;4975580;28;20027;-65
2022/09/07 08:30:42;;;;;;;36.70;25.00;;;;;;;18.99;81.79;101225.00;4966906;28;20026;-65
2022/09/07 08:33:07;;;;;;;33.95;24.10;;;;;;;19.01;81.49;101226.75;4978080;28;20034;-64
2022/09/07 08:35:33;;;;;;;33.00;23.20;;;;;;;19.06;81.69;101226.72;4971700;28;20031;-65
2022/09/07 08:37:58;;;;;;;32.75;23.65;;;;;;;19.14;81.92;101229.34;4968562;28;20022;-62
2022/09/07 08:40:23;;;;;;;33.33;23.15;;;;;;;19.20;81.74;101234.59;4964525;28;20023;-61
2022/09/07 08:43:07;;;;;;;30.98;22.80;;;;;;;19.25;80.59;101230.16;4971476;28;20031;-62
2022/09/07 08:45:42;;;;;;;31.65;21.80;;;;;;;19.33;80.49;101238.91;4973534;28;20039;-62
2022/09/07 08:48:11;;;;;;;31.95;21.55;;;;;;;19.40;80.76;101229.19;4969704;28;20018;-62
2022/09/07 08:50:44;;;;;;;29.75;22.13;;;;;;;19.45;79.64;101233.56;4972602;28;20498;-62
2022/09/07 08:53:15;;;;;;;28.23;21.23;;;;;;;19.52;79.62;101239.66;4968731;28;20562;-62
2022/09/07 08:55:50;;;;;;;31.83;21.05;;;;;;;19.58;79.48;101231.72;4955179;28;20438;-62
2022/09/07 08:58:23;;;;;;;28.50;20.85;;;;;;;19.69;80.72;101236.03;4970505;28;20034;-62
2022/09/07 09:00:49;;;;;;;28.10;20.88;;;;;;;19.77;79.41;101237.72;4978170;28;20014;-61
2022/09/07 09:03:27;;;;;;;27.02;18.90;;;;;;;19.87;79.53;101235.00;4966557;28;20039;-62
2022/09/07 09:06:08;;;;;;;25.73;18.33;;;;;;;19.94;79.06;101244.66;4964799;28;20042;-62
2022/09/07 09:08:46;;;;;;;23.50;17.63;;;;;;;20.04;77.85;101237.53;4969372;28;20037;-65
2022/09/07 09:11:36;;;;;;;22.02;17.13;;;;;;;20.11;77.38;101242.72;4964983;28;20042;-65
2022/09/07 09:14:16;;;;;;;25.17;17.23;;;;;;;20.21;77.88;101240.88;4966408;28;20053;-65
2022/09/07 09:16:46;;;;;;;23.27;17.13;;;;;;;20.28;76.78;101237.28;4964624;28;20025;-65
2022/09/07 09:19:45;;;;;;;22.60;17.08;;;;;;;20.36;76.20;101233.66;4974787;28;20187;-65
2022/09/07 09:22:17;;;;;;;23.33;16.10;;;;;;;20.43;75.64;101232.72;4977874;28;20387;-65
2022/09/07 09:24:47;;;;;;;23.90;16.85;;;;;;;20.51;75.17;101238.81;4969309;28;20038;-65
2022/09/07 09:27:13;;;;;;;21.70;15.77;;;;;;;20.57;75.10;101229.91;4968451;28;20027;-65
2022/09/07 09:29:38;;;;;;;23.00;16.95;;;;;;;20.65;75.65;101230.69;4978186;28;20063;-65
2022/09/07 09:32:31;;;;;;;24.30;15.70;;;;;;;20.78;75.95;101227.03;4962089;28;20109;-65
2022/09/07 09:35:11;;;;;;;24.40;16.23;;;;;;;20.91;74.41;101233.03;4968781;28;20026;-65
2022/09/07 09:37:39;;;;;;;19.02;13.68;;;;;;;21.00;72.25;101238.22;4970883;28;20026;-65
2022/09/07 09:40:08;;;;;;;18.90;13.65;;;;;;;21.11;72.80;101237.19;4971315;28;20038;-65
2022/09/07 09:42:35;;;;;;;18.27;13.32;;;;;;;21.18;72.44;101239.72;4976414;28;20085;-64
2022/09/07 09:45:15;;;;;;;18.95;12.50;;;;;;;21.24;71.03;101236.13;4970545;28;20371;-65
2022/09/07 09:47:46;;;;;;;19.23;12.27;;;;;;;21.33;71.41;101236.00;4965594;28;20026;-66
2022/09/07 09:50:20;;;;;;;19.83;12.80;;;;;;;21.39;71.01;101236.78;4977815;28;20038;-65
2022/09/07 09:52:47;;;;;;;17.15;11.60;;;;;;;21.45;69.07;101228.72;4978634;28;20030;-66
2022/09/07 09:55:41;;;;;;;13.95;9.25;;;;;;;21.52;70.50;101228.66;4975993;28;20058;-66
2022/09/07 09:58:30;;;;;;;18.55;9.57;;;;;;;21.65;69.27;101233.75;4951607;28;20038;-66
2022/09/07 10:01:02;;;;;;;14.57;8.93;;;;;;;21.75;68.05;101226.53;4973101;28;20026;-65
2022/09/07 10:03:30;;;;;;;14.15;8.95;;;;;;;21.85;68.11;101233.44;4983859;28;20106;-65
2022/09/07 10:05:56;;;;;;;14.75;9.63;;;;;;;21.97;68.42;101227.03;4988559;28;20105;-65
2022/09/07 10:08:27;;;;;;;15.77;9.25;;;;;;;22.06;67.60;101233.06;4961232;28;20046;-65
2022/09/07 10:11:00;;;;;;;16.05;8.90;;;;;;;22.15;66.21;101226.72;4978204;28;20520;-66
2022/09/07 10:13:34;;;;;;;14.15;8.75;;;;;;;22.24;67.64;101223.00;4984681;28;20037;-65
2022/09/07 10:16:05;;;;;;;11.40;6.10;;;;;;;22.32;63.98;101217.53;4955974;28;20026;-66
2022/09/07 10:18:36;;;;;;;11.90;6.13;;;;;;;;;;4973245;28;20224;-62
2022/09/07 10:21:27;;;;;;;12.98;7.60;;;;;;;22.55;64.64;101211.81;4970122;28;20062;-61
2022/09/07 10:24:06;;;;;;;13.10;7.28;;;;;;;22.57;64.11;101204.69;4972900;28;20030;-62
2022/09/07 10:26:32;;;;;;;;;;;;;;;22.67;66.27;101213.34;4974754;28;20022;-61
2022/09/07 10:29:12;;;;;;;11.25;5.68;;;;;;;22.72;63.79;101212.34;4949653;28;20301;-62
2022/09/07 10:32:02;;;;;;;10.05;5.00;;;;;;;22.82;63.88;101212.16;4976679;28;20105;-62
2022/09/07 10:34:46;;;;;;;7.90;4.50;;;;;;;22.91;62.89;101206.63;4987897;28;20026;-62
2022/09/07 10:37:30;;;;;;;8.95;4.78;;;;;;;22.99;63.03;101210.00;4978632;28;20026;-62
2022/09/07 10:40:15;;;;;;;13.38;5.30;;;;;;;23.07;62.70;101210.69;4994470;28;20076;-61
2022/09/07 10:42:50;;;;;;;10.65;4.95;;;;;;;23.16;61.44;101208.75;4994515;28;20045;-62
2022/09/07 10:45:20;;;;;;;9.88;4.90;;;;;;;23.22;60.48;101205.97;4982790;28;20022;-62
2022/09/07 10:47:54;;;;;;;9.20;4.60;;;;;;;23.24;61.07;101194.38;4983654;28;20027;-65
2022/09/07 10:50:26;;;;;;;11.02;4.97;;;;;;;23.32;60.68;101194.22;4976767;28;20050;-66
2022/09/07 10:53:12;;;;;;;9.52;4.30;;;;;;;23.44;61.22;101199.22;4994264;28;20549;-65
2022/09/07 10:55:41;;;;;;;9.40;4.55;;;;;;;23.43;59.75;101194.81;4976917;28;20038;-66
2022/09/07 10:58:31;;;;;;;7.82;3.67;;;;;;;23.46;59.88;101196.50;4994490;28;20022;-67
2022/09/07 11:01:22;;;;;;;9.98;4.10;;;;;;;23.44;58.85;101199.22;4986811;28;20042;-66
2022/09/07 11:03:57;;;;;;;8.18;3.95;;;;;;;23.42;57.69;101193.06;4964616;28;20037;-65
2022/09/07 11:06:33;;;;;;;10.20;4.50;;;;;;;23.42;58.46;101190.41;4981282;28;20049;-66
2022/09/07 11:09:10;;;;;;;8.93;4.07;;;;;;;23.37;56.77;101191.44;4981767;28;20038;-66
2022/09/07 11:11:44;;;;;;;7.32;4.40;;;;;;;23.32;58.94;101191.56;4980011;28;20030;-66
2022/09/07 11:14:22;;;;;;;8.80;4.30;;;;;;;23.31;58.01;101192.44;4978459;28;20129;-66
2022/09/07 11:16:52;;;;;;;9.43;5.00;;;;;;;23.30;57.15;101190.69;4980656;28;20026;-65
2022/09/07 11:19:32;;;;;;;10.13;4.43;;;;;;;23.31;58.51;101181.81;4984578;28;20019;-66
2022/09/07 11:22:49;;;;;;;9.65;4.50;;;;;;;23.42;58.85;101174.47;4984662;28;20568;-66
2022/09/07 11:25:35;;;;;;;10.68;4.30;;;;;;;23.55;58.26;101179.44;4904984;29;20545;-65
2022/09/07 11:28:10;;;;;;;8.80;3.90;;;;;;;23.63;58.05;101180.13;4987982;28;20037;-65
2022/09/07 11:30:49;;;;;;;10.05;4.50;;;;;;;23.76;57.30;101186.03;4991144;28;20034;-66